Time;durP1;ratioP1;P1;durP2;ratioP2;P2;SDS_P1;SDS_P2;PMS_P1;PMS_P2;Temp;Humidity;BMP_temperature;BMP_pressure;BME280_temperature;BME280_humidity;BME280_pressure;Samples;Min_cycle;Max_cycle;Signal;HPM_P1;HPM_P2
2022/03/17 00:02:07;;;;;;;;;;;11.70;99.90;;;;;;5091109;28;19924;-73
2022/03/17 00:04:35;;;;;;;;;;;11.70;99.90;;;;;;5090403;28;19930;-74
2022/03/17 00:07:01;;;;;;;;;;;11.70;99.90;;;;;;5092370;28;20015;-74
2022/03/17 00:09:28;;;;;;;;;;;11.80;99.90;;;;;;5092146;28;19928;-74
2022/03/17 00:11:55;;;;;;;;;;;11.80;99.90;;;;;;5092215;28;20326;-73
2022/03/17 00:14:22;;;;;;;;;;;11.70;99.90;;;;;;5088216;28;19924;-74
2022/03/17 00:16:49;;;;;;;;;;;11.70;99.90;;;;;;5092264;28;20294;-73
2022/03/17 00:19:15;;;;;;;;;;;11.70;99.90;;;;;;5088858;28;20480;-74
2022/03/17 00:21:44;;;;;;;;;;;11.70;99.90;;;;;;5084804;28;20362;-74
2022/03/17 00:24:10;;;;;;;;;;;11.70;99.90;;;;;;5087053;28;20413;-74
2022/03/17 00:26:37;;;;;;;;;;;11.70;99.90;;;;;;5082998;28;19993;-74
2022/03/17 00:29:05;;;;;;;;;;;11.70;99.90;;;;;;5082558;28;19931;-74
2022/03/17 00:31:32;;;;;;;;;;;11.70;99.90;;;;;;5091125;28;19928;-74
2022/03/17 00:33:58;;;;;;;;;;;11.70;99.90;;;;;;5087187;28;19924;-74
2022/03/17 00:36:25;;;;;;;;;;;11.70;99.90;;;;;;5093782;28;19974;-74
2022/03/17 00:38:53;;;;;;;;;;;11.80;99.90;;;;;;5091775;28;19930;-74
2022/03/17 00:41:20;;;;;;;;;;;11.80;99.90;;;;;;5092236;28;20396;-74
2022/03/17 00:43:46;;;;;;;;;;;11.80;99.90;;;;;;5086341;28;19924;-74
2022/03/17 00:46:13;;;;;;;;;;;11.80;99.90;;;;;;5090806;28;20011;-74
2022/03/17 00:48:40;;;;;;;;;;;11.80;99.90;;;;;;5090689;28;19967;-74
2022/03/17 00:51:06;;;;;;;;;;;11.80;99.90;;;;;;5091642;28;20007;-73
2022/03/17 00:53:33;;;;;;;;;;;11.90;99.90;;;;;;5089669;28;19993;-73
2022/03/17 00:56:01;;;;;;;;;;;11.90;99.90;;;;;;5091680;28;19931;-73
2022/03/17 00:58:29;;;;;;;;;;;11.90;99.90;;;;;;5089799;28;19936;-75
2022/03/17 01:00:55;;;;;;;;;;;11.90;99.90;;;;;;5088823;28;19989;-74
2022/03/17 01:03:22;;;;;;;;;;;11.80;99.90;;;;;;5086629;28;19928;-74
2022/03/17 01:05:48;;;;;;;;;;;11.80;99.90;;;;;;5088973;28;19931;-74
2022/03/17 01:08:15;;;;;;;;;;;11.80;99.90;;;;;;5083819;28;19924;-73
2022/03/17 01:10:43;;;;;;;;;;;11.80;99.90;;;;;;5090861;28;20010;-73
2022/03/17 01:13:11;;;;;;;;;;;11.80;99.90;;;;;;5085878;28;20019;-73
2022/03/17 01:15:37;;;;;;;;;;;11.80;99.90;;;;;;5089501;28;19924;-73
2022/03/17 01:18:05;;;;;;;;;;;11.80;99.90;;;;;;5088295;28;20027;-73
2022/03/17 01:20:31;;;;;;;;;;;11.70;99.90;;;;;;5090326;28;20031;-73
2022/03/17 01:23:04;;;;;;;;;;;11.70;99.90;;;;;;5088322;28;20078;-76
2022/03/17 01:25:31;;;;;;;;;;;11.70;99.90;;;;;;5084007;28;19928;-73
2022/03/17 01:27:58;;;;;;;;;;;11.60;99.90;;;;;;5089670;28;20401;-73
2022/03/17 01:30:26;;;;;;;;;;;11.60;99.90;;;;;;5089211;28;19928;-73
2022/03/17 01:32:53;;;;;;;;;;;11.50;99.90;;;;;;5087846;28;19925;-73
2022/03/17 01:35:19;;;;;;;;;;;11.30;99.90;;;;;;5087006;28;19924;-73
2022/03/17 01:37:46;;;;;;;;;;;11.10;99.90;;;;;;5087546;28;19924;-74
2022/03/17 01:40:13;;;;;;;;;;;10.90;99.90;;;;;;5085157;28;19924;-74
2022/03/17 01:42:40;;;;;;;;;;;10.50;99.90;;;;;;5091293;28;19931;-73
2022/03/17 01:45:07;;;;;;;;;;;10.40;99.90;;;;;;5089059;28;19964;-73
2022/03/17 01:47:36;;;;;;;;;;;10.30;99.90;;;;;;5089868;28;19930;-74
2022/03/17 01:50:05;;;;;;;;;;;10.20;99.90;;;;;;5084860;28;19924;-74
2022/03/17 01:52:32;;;;;;;;;;;10.00;99.90;;;;;;5091446;28;20400;-75
2022/03/17 01:54:58;;;;;;;;;;;9.90;99.90;;;;;;5088098;28;19924;-73
2022/03/17 01:57:25;;;;;;;;;;;9.70;99.90;;;;;;5091834;28;19998;-74
2022/03/17 01:59:52;;;;;;;;;;;9.50;99.90;;;;;;5089014;28;19928;-73
2022/03/17 02:02:19;;;;;;;;;;;9.50;99.90;;;;;;5091195;28;19924;-73
2022/03/17 02:04:49;;;;;;;;;;;9.40;99.90;;;;;;5086913;28;19931;-74
2022/03/17 02:07:16;;;;;;;;;;;9.40;99.90;;;;;;5084716;28;19924;-74
2022/03/17 02:09:43;;;;;;;;;;;9.40;99.90;;;;;;5086443;28;20027;-74
2022/03/17 02:14:59;;;;;;;;;;;9.60;99.90;;;;;;5087520;28;19946;-73
2022/03/17 02:17:27;;;;;;;;;;;9.30;99.90;;;;;;5090272;28;20378;-74
2022/03/17 02:19:56;;;;;;;;;;;9.30;99.90;;;;;;5087881;28;19924;-73
2022/03/17 02:22:25;;;;;;;;;;;9.30;99.90;;;;;;5091792;28;19936;-73
2022/03/17 02:27:40;;;;;;;;;;;9.30;99.90;;;;;;5091074;28;19931;-77
2022/03/17 02:30:10;;;;;;;;;;;9.30;99.90;;;;;;5086607;28;19932;-74
2022/03/17 02:32:37;;;;;;;;;;;9.30;99.90;;;;;;5086646;28;19931;-75
2022/03/17 02:35:05;;;;;;;;;;;9.30;99.90;;;;;;5086962;28;19932;-74
2022/03/17 02:37:32;;;;;;;;;;;9.20;99.90;;;;;;5087141;28;19931;-74
2022/03/17 02:40:01;;;;;;;;;;;9.20;99.90;;;;;;5086925;28;19967;-74
2022/03/17 02:42:30;;;;;;;;;;;9.20;99.90;;;;;;5084999;28;19924;-73
2022/03/17 02:44:57;;;;;;;;;;;9.20;99.90;;;;;;5083250;28;20020;-74
2022/03/17 02:47:24;;;;;;;;;;;9.20;99.90;;;;;;5089042;28;19924;-74
2022/03/17 02:49:52;;;;;;;;;;;9.20;99.90;;;;;;5087654;28;20015;-74
2022/03/17 02:52:19;;;;;;;;;;;9.20;99.90;;;;;;5086158;28;19950;-74
2022/03/17 02:54:46;;;;;;;;;;;9.20;99.90;;;;;;5086705;28;20321;-74
2022/03/17 02:57:14;;;;;;;;;;;9.10;99.90;;;;;;5086933;28;19924;-74
2022/03/17 02:59:41;;;;;;;;;;;9.20;99.90;;;;;;5085830;28;19924;-74
2022/03/17 03:02:07;;;;;;;;;;;9.20;99.90;;;;;;5087940;28;19924;-74
2022/03/17 03:04:34;;;;;;;;;;;9.20;99.90;;;;;;5086570;28;19932;-73
2022/03/17 03:07:02;;;;;;;;;;;9.10;99.90;;;;;;5087867;28;19938;-74
2022/03/17 03:09:28;;;;;;;;;;;9.20;99.90;;;;;;5079567;28;19934;-73
2022/03/17 03:11:55;;;;;;;;;;;9.10;99.90;;;;;;5087547;28;19924;-74
2022/03/17 03:14:23;;;;;;;;;;;9.10;99.90;;;;;;5087586;28;19932;-73
2022/03/17 03:16:50;;;;;;;;;;;9.10;99.90;;;;;;5086161;28;20018;-73
2022/03/17 03:19:16;;;;;;;;;;;9.10;99.90;;;;;;5089475;28;19943;-74
2022/03/17 03:21:43;;;;;;;;;;;9.10;99.90;;;;;;5083617;28;20307;-75
2022/03/17 03:24:10;;;;;;;;;;;9.00;99.90;;;;;;5086166;28;19925;-75
2022/03/17 03:26:37;;;;;;;;;;;9.00;99.90;;;;;;5096100;28;19924;-74
2022/03/17 03:29:04;;;;;;;;;;;9.00;99.90;;;;;;5090317;28;19963;-74
2022/03/17 03:31:34;;;;;;;;;;;9.00;99.90;;;;;;5091486;28;19924;-74
2022/03/17 03:34:01;;;;;;;;;;;9.00;99.90;;;;;;5089530;28;19928;-74
2022/03/17 03:39:11;;;;;;;;;;;9.00;99.90;;;;;;5088851;28;19939;-75
2022/03/17 03:41:38;;;;;;;;;;;8.90;99.90;;;;;;5092131;28;20442;-74
2022/03/17 03:44:05;;;;;;;;;;;9.00;99.90;;;;;;5092447;28;19924;-74
2022/03/17 03:46:33;;;;;;;;;;;9.00;99.90;;;;;;5089129;28;19924;-75
2022/03/17 03:48:59;;;;;;;;;;;8.90;99.90;;;;;;5088245;28;19924;-75
2022/03/17 03:51:26;;;;;;;;;;;8.90;99.90;;;;;;5089625;28;19924;-74
2022/03/17 03:56:37;;;;;;;;;;;8.80;99.90;;;;;;5089059;28;19938;-74
2022/03/17 03:59:04;;;;;;;;;;;8.80;99.90;;;;;;5091231;28;19963;-74
2022/03/17 04:01:33;;;;;;;;;;;8.70;99.90;;;;;;5094426;28;19931;-74
2022/03/17 04:04:01;;;;;;;;;;;8.80;99.90;;;;;;5087977;28;19934;-74
2022/03/17 04:06:27;;;;;;;;;;;8.80;99.90;;;;;;5090512;28;19925;-73
2022/03/17 04:08:54;;;;;;;;;;;8.80;99.90;;;;;;5092656;28;19970;-74
2022/03/17 04:11:21;;;;;;;;;;;8.70;99.90;;;;;;5090695;28;19928;-74
2022/03/17 04:13:47;;;;;;;;;;;8.70;99.90;;;;;;5088892;28;19930;-74
2022/03/17 04:16:14;;;;;;;;;;;8.70;99.90;;;;;;5091616;28;19924;-73
2022/03/17 04:18:42;;;;;;;;;;;8.70;99.90;;;;;;5092018;28;19924;-74
2022/03/17 04:21:09;;;;;;;;;;;8.70;99.90;;;;;;5080596;28;19931;-73
2022/03/17 04:23:35;;;;;;;;;;;8.70;99.90;;;;;;5092364;28;20023;-73
2022/03/17 04:26:02;;;;;;;;;;;8.60;99.90;;;;;;5091875;28;19943;-73
2022/03/17 04:28:29;;;;;;;;;;;8.60;99.90;;;;;;5090417;28;20023;-74
2022/03/17 04:30:55;;;;;;;;;;;8.80;99.90;;;;;;5092462;28;19960;-73
2022/03/17 04:33:22;;;;;;;;;;;8.60;99.90;;;;;;5087538;28;20537;-74
2022/03/17 04:35:50;;;;;;;;;;;8.60;99.90;;;;;;5090247;28;19931;-74
2022/03/17 04:38:17;;;;;;;;;;;8.60;99.90;;;;;;5089276;28;19924;-74
2022/03/17 04:40:49;;;;;;;;;;;8.60;99.90;;;;;;5088089;28;19925;-74
2022/03/17 04:43:17;;;;;;;;;;;8.70;99.90;;;;;;5091216;28;19924;-74
2022/03/17 04:45:44;;;;;;;;;;;8.60;99.90;;;;;;5083963;28;20299;-73
2022/03/17 04:48:10;;;;;;;;;;;8.70;99.90;;;;;;5091261;28;20007;-73
2022/03/17 04:50:37;;;;;;;;;;;8.60;99.90;;;;;;5093185;28;19930;-76
2022/03/17 04:55:49;;;;;;;;;;;8.50;99.90;;;;;;5091283;28;19931;-75
2022/03/17 04:58:16;;;;;;;;;;;8.60;99.90;;;;;;5087911;28;19997;-75
2022/03/17 05:00:43;;;;;;;;;;;8.60;99.90;;;;;;5089276;28;19934;-74
2022/03/17 05:03:10;;;;;;;;;;;8.60;99.90;;;;;;5089522;28;19934;-72
2022/03/17 05:05:37;;;;;;;;;;;8.60;99.90;;;;;;5089024;28;19946;-73
2022/03/17 05:08:05;;;;;;;;;;;8.60;99.90;;;;;;5089221;28;20036;-73
2022/03/17 05:10:32;;;;;;;;;;;8.60;99.90;;;;;;5085172;28;20023;-74
2022/03/17 05:12:59;;;;;;;;;;;8.50;99.90;;;;;;5088531;28;20298;-74
2022/03/17 05:15:26;;;;;;;;;;;8.60;99.90;;;;;;5091523;28;19924;-74
2022/03/17 05:17:53;;;;;;;;;;;8.60;99.90;;;;;;5081920;28;19924;-74
2022/03/17 05:20:19;;;;;;;;;;;8.50;99.90;;;;;;5088283;28;19931;-73
2022/03/17 05:22:46;;;;;;;;;;;8.60;99.90;;;;;;5088828;28;19962;-74
2022/03/17 05:25:14;;;;;;;;;;;8.50;99.90;;;;;;5088998;28;19924;-73
2022/03/17 05:27:41;;;;;;;;;;;8.50;99.90;;;;;;5090270;28;19930;-74
2022/03/17 05:30:10;;;;;;;;;;;8.50;99.90;;;;;;5088779;28;19977;-73
2022/03/17 05:32:37;;;;;;;;;;;8.50;99.90;;;;;;5089687;28;19969;-73
2022/03/17 05:35:03;;;;;;;;;;;8.50;99.90;;;;;;5086676;28;19931;-73
2022/03/17 05:37:30;;;;;;;;;;;8.50;99.90;;;;;;5088173;28;19924;-74
2022/03/17 05:39:57;;;;;;;;;;;8.40;99.90;;;;;;5087496;28;19924;-73
2022/03/17 05:42:25;;;;;;;;;;;8.40;99.90;;;;;;5088870;28;19934;-74
2022/03/17 05:44:51;;;;;;;;;;;8.40;99.90;;;;;;5087084;28;19924;-73
2022/03/17 05:47:18;;;;;;;;;;;8.40;99.90;;;;;;5087772;28;20011;-73
2022/03/17 05:49:45;;;;;;;;;;;8.40;99.90;;;;;;5088892;28;19943;-74
2022/03/17 05:52:11;;;;;;;;;;;8.40;99.90;;;;;;5087549;28;19932;-74
2022/03/17 05:54:38;;;;;;;;;;;8.30;99.90;;;;;;5088685;28;19990;-73
2022/03/17 05:57:04;;;;;;;;;;;8.30;99.90;;;;;;5089576;28;19928;-74
2022/03/17 05:59:32;;;;;;;;;;;8.40;99.90;;;;;;5088261;28;19931;-73
2022/03/17 06:01:59;;;;;;;;;;;8.40;99.90;;;;;;5088779;28;19935;-75
2022/03/17 06:04:26;;;;;;;;;;;8.40;99.90;;;;;;5085740;28;19938;-73
2022/03/17 06:06:53;;;;;;;;;;;8.30;99.90;;;;;;5087047;28;19924;-74
2022/03/17 06:09:20;;;;;;;;;;;8.40;99.90;;;;;;5087401;28;19928;-74
2022/03/17 06:11:46;;;;;;;;;;;8.30;99.90;;;;;;5091417;28;19924;-73
2022/03/17 06:14:13;;;;;;;;;;;8.20;99.90;;;;;;5088921;28;19928;-74
2022/03/17 06:16:41;;;;;;;;;;;8.30;99.90;;;;;;5090245;28;19923;-73
2022/03/17 06:19:08;;;;;;;;;;;8.30;99.90;;;;;;5085169;28;19930;-73
2022/03/17 06:21:35;;;;;;;;;;;8.40;99.90;;;;;;5089603;28;20428;-73
2022/03/17 06:24:01;;;;;;;;;;;8.20;99.90;;;;;;5083833;28;20687;-73
2022/03/17 06:26:28;;;;;;;;;;;8.20;99.90;;;;;;5088070;28;20857;-73
2022/03/17 06:28:55;;;;;;;;;;;8.20;99.90;;;;;;5084006;28;19925;-73
2022/03/17 06:31:22;;;;;;;;;;;8.10;99.90;;;;;;5088944;28;19997;-72
2022/03/17 06:33:50;;;;;;;;;;;8.10;99.90;;;;;;5085655;28;20019;-73
2022/03/17 06:36:16;;;;;;;;;;;8.10;99.90;;;;;;5087470;28;19989;-73
2022/03/17 06:38:43;;;;;;;;;;;8.00;99.90;;;;;;5086251;28;19928;-73
2022/03/17 06:41:10;;;;;;;;;;;8.00;99.90;;;;;;5090390;28;20015;-70
2022/03/17 06:43:36;;;;;;;;;;;8.10;99.90;;;;;;5080141;28;19938;-74
2022/03/17 06:46:03;;;;;;;;;;;8.20;99.90;;;;;;5077760;28;20009;-72
2022/03/17 06:48:30;;;;;;;;;;;8.10;99.90;;;;;;5084600;28;19932;-72
2022/03/17 06:50:58;;;;;;;;;;;8.10;99.90;;;;;;5085807;28;19924;-75
2022/03/17 06:53:24;;;;;;;;;;;8.10;99.90;;;;;;5088674;28;19928;-74
2022/03/17 06:55:51;;;;;;;;;;;8.10;99.90;;;;;;5079484;28;20466;-73
2022/03/17 06:58:18;;;;;;;;;;;8.10;99.90;;;;;;5085167;28;20405;-72
2022/03/17 07:00:44;;;;;;;;;;;8.10;99.90;;;;;;5083330;28;19931;-72
2022/03/17 07:03:11;;;;;;;;;;;8.10;99.90;;;;;;5083327;28;19924;-73
2022/03/17 07:05:38;;;;;;;;;;;8.20;99.90;;;;;;5084076;28;20282;-74
2022/03/17 07:08:06;;;;;;;;;;;8.20;99.90;;;;;;5077749;28;19929;-73
2022/03/17 07:10:33;;;;;;;;;;;8.20;99.90;;;;;;5089973;22;19924;-73
2022/03/17 07:13:00;;;;;;;;;;;7.90;99.90;;;;;;5086497;28;19952;-73
2022/03/17 07:15:28;;;;;;;;;;;8.20;99.90;;;;;;5083834;28;20014;-73
2022/03/17 07:17:54;;;;;;;;;;;8.20;99.90;;;;;;5067622;28;19924;-72
2022/03/17 07:20:21;;;;;;;;;;;8.20;99.90;;;;;;5082791;28;20608;-73
2022/03/17 07:22:49;;;;;;;;;;;8.30;99.90;;;;;;5079158;28;19930;-73
2022/03/17 07:25:18;;;;;;;;;;;8.30;99.90;;;;;;5089844;28;20410;-72
2022/03/17 07:27:46;;;;;;;;;;;8.20;99.90;;;;;;5075792;28;19978;-73
2022/03/17 07:30:14;;;;;;;;;;;8.20;99.90;;;;;;5089455;28;20032;-72
2022/03/17 07:32:40;;;;;;;;;;;8.20;99.90;;;;;;5077953;28;20409;-73
2022/03/17 07:35:07;;;;;;;;;;;8.40;99.90;;;;;;5087961;28;19928;-73
2022/03/17 07:37:34;;;;;;;;;;;8.30;99.90;;;;;;5080935;28;19925;-74
2022/03/17 07:40:01;;;;;;;;;;;8.20;99.90;;;;;;5070218;28;19999;-73
2022/03/17 07:42:34;;;;;;;;;;;8.20;99.90;;;;;;5075235;28;20379;-73
2022/03/17 07:45:01;;;;;;;;;;;8.30;99.90;;;;;;5072058;28;19940;-74
2022/03/17 07:47:28;;;;;;;;;;;8.30;99.90;;;;;;5075447;28;19925;-74
2022/03/17 07:49:54;;;;;;;;;;;8.30;99.90;;;;;;5079783;28;19928;-74
2022/03/17 07:52:21;;;;;;;;;;;8.20;99.90;;;;;;5080122;28;19947;-74
2022/03/17 07:54:48;;;;;;;;;;;8.30;99.90;;;;;;5079424;28;20358;-75
2022/03/17 07:57:15;;;;;;;;;;;8.40;99.90;;;;;;5070407;28;19939;-74
2022/03/17 07:59:43;;;;;;;;;;;8.30;99.90;;;;;;5084891;28;20417;-75
2022/03/17 08:02:10;;;;;;;;;;;8.30;99.90;;;;;;5082168;28;19924;-74
2022/03/17 08:04:37;;;;;;;;;;;8.30;99.90;;;;;;5085441;28;19934;-74
2022/03/17 08:07:04;;;;;;;;;;;8.40;99.90;;;;;;5080090;28;20535;-74
2022/03/17 08:09:30;;;;;;;;;;;8.40;99.90;;;;;;5085100;28;19924;-74
2022/03/17 08:11:59;;;;;;;;;;;8.30;99.90;;;;;;5089514;28;19931;-75
2022/03/17 08:14:25;;;;;;;;;;;8.30;99.90;;;;;;5090509;28;19924;-74
2022/03/17 08:16:54;;;;;;;;;;;8.30;99.90;;;;;;5088734;28;20019;-74
2022/03/17 08:19:20;;;;;;;;;;;8.30;99.90;;;;;;5088970;28;19924;-74
2022/03/17 08:21:47;;;;;;;;;;;8.40;99.90;;;;;;5093714;28;20287;-74
2022/03/17 08:24:14;;;;;;;;;;;8.50;99.90;;;;;;5087223;28;20361;-75
2022/03/17 08:26:41;;;;;;;;;;;8.50;99.90;;;;;;5090095;28;19928;-75
2022/03/17 08:29:08;;;;;;;;;;;8.50;99.90;;;;;;5081414;28;19954;-74
2022/03/17 08:31:34;;;;;;;;;;;8.50;99.90;;;;;;5083129;28;20665;-72
2022/03/17 08:34:02;;;;;;;;;;;8.50;99.90;;;;;;5090766;28;19924;-76
2022/03/17 08:36:29;;;;;;;;;;;8.60;99.90;;;;;;5092783;28;20292;-75
2022/03/17 08:38:56;;;;;;;;;;;8.60;99.90;;;;;;5087627;28;20342;-75
2022/03/17 08:41:22;;;;;;;;;;;8.70;99.90;;;;;;5090518;28;20299;-75
2022/03/17 08:43:50;;;;;;;;;;;8.80;99.90;;;;;;5092311;28;19924;-75
2022/03/17 08:49:22;;;;;;;;;;;8.80;99.90;;;;;;5078097;28;19932;-74
2022/03/17 08:51:50;;;;;;;;;;;8.90;99.90;;;;;;5082505;28;19928;-75
2022/03/17 08:54:17;;;;;;;;;;;8.80;99.90;;;;;;5068542;28;19932;-75
2022/03/17 08:56:44;;;;;;;;;;;8.80;99.90;;;;;;5073650;28;20007;-75
2022/03/17 08:59:11;;;;;;;;;;;8.80;99.90;;;;;;5087415;28;20362;-75
2022/03/17 09:01:38;;;;;;;;;;;8.80;99.90;;;;;;5076983;28;19928;-75
2022/03/17 09:04:06;;;;;;;;;;;8.80;99.90;;;;;;5078768;28;19925;-75
2022/03/17 09:06:32;;;;;;;;;;;8.80;99.90;;;;;;5081359;28;20011;-77
2022/03/17 09:08:59;;;;;;;;;;;8.90;99.90;;;;;;5082850;28;19925;-75
2022/03/17 09:11:26;;;;;;;;;;;8.90;99.90;;;;;;5079326;28;19931;-75
2022/03/17 09:13:53;;;;;;;;;;;9.00;99.90;;;;;;5077629;28;19924;-75
2022/03/17 09:16:20;;;;;;;;;;;9.00;99.90;;;;;;5083716;28;20437;-75
2022/03/17 09:18:46;;;;;;;;;;;9.10;99.90;;;;;;5077669;28;20292;-76
2022/03/17 09:21:14;;;;;;;;;;;9.20;99.90;;;;;;5077513;28;20083;-75
2022/03/17 09:23:41;;;;;;;;;;;9.20;99.90;;;;;;5077475;28;19928;-75
2022/03/17 09:26:08;;;;;;;;;;;9.20;99.90;;;;;;5076456;28;19962;-74
2022/03/17 09:28:35;;;;;;;;;;;9.30;99.90;;;;;;5081227;28;20015;-74
2022/03/17 09:31:01;;;;;;;;;;;9.40;99.90;;;;;;5085599;28;19924;-74
2022/03/17 09:33:28;;;;;;;;;;;9.40;99.90;;;;;;5082427;28;20051;-75
2022/03/17 09:35:55;;;;;;;;;;;9.40;99.00;;;;;;5080721;28;20332;-75
2022/03/17 09:38:24;;;;;;;;;;;9.70;99.10;;;;;;5083281;28;19977;-75
2022/03/17 09:40:50;;;;;;;;;;;9.60;99.00;;;;;;5081408;28;20005;-75
2022/03/17 09:43:21;;;;;;;;;;;9.60;98.70;;;;;;5075409;28;19924;-75
2022/03/17 09:45:50;;;;;;;;;;;9.50;98.40;;;;;;5074604;28;20395;-75
2022/03/17 09:48:17;;;;;;;;;;;9.60;98.30;;;;;;5080286;28;19929;-74
2022/03/17 09:50:44;;;;;;;;;;;9.40;99.10;;;;;;5082601;28;19943;-74
2022/03/17 09:53:11;;;;;;;;;;;9.70;98.20;;;;;;5078786;28;19935;-75
2022/03/17 09:55:43;;;;;;;;;;;9.30;97.20;;;;;;5077411;28;19933;-75
2022/03/17 09:58:11;;;;;;;;;;;9.30;96.70;;;;;;5082341;28;19955;-72
2022/03/17 10:00:49;;;;;;;;;;;9.40;96.10;;;;;;5075391;28;20014;-73
2022/03/17 10:03:16;;;;;;;;;;;9.50;95.70;;;;;;5078986;28;20399;-75
2022/03/17 10:05:44;;;;;;;;;;;9.80;95.40;;;;;;5074923;28;19935;-73
2022/03/17 10:08:10;;;;;;;;;;;9.70;94.50;;;;;;5081713;28;20378;-73
2022/03/17 10:10:39;;;;;;;;;;;9.90;94.60;;;;;;5085101;28;19931;-73
2022/03/17 10:13:06;;;;;;;;;;;9.80;93.50;;;;;;5079184;28;20011;-75
2022/03/17 10:15:33;;;;;;;;;;;9.90;93.50;;;;;;5078046;28;19955;-73
2022/03/17 10:18:00;;;;;;;;;;;9.80;93.20;;;;;;5080376;28;19931;-74
2022/03/17 10:20:28;;;;;;;;;;;9.80;93.70;;;;;;5084354;28;19928;-73
2022/03/17 10:22:56;;;;;;;;;;;9.80;93.50;;;;;;5078775;28;19928;-74
2022/03/17 10:25:23;;;;;;;;;;;9.90;93.10;;;;;;5083210;28;19944;-73
2022/03/17 10:27:54;;;;;;;;;;;9.90;93.20;;;;;;5081738;28;19931;-74
2022/03/17 10:30:24;;;;;;;;;;;10.00;92.70;;;;;;5086073;28;19931;-74
2022/03/17 10:32:55;;;;;;;;;;;10.10;92.50;;;;;;5078462;28;19924;-74
2022/03/17 10:35:25;;;;;;;;;;;10.10;92.10;;;;;;5082704;28;19932;-74
2022/03/17 10:37:52;;;;;;;;;;;9.70;93.10;;;;;;5077780;28;20294;-74
2022/03/17 10:40:19;;;;;;;;;;;9.90;93.50;;;;;;5083391;28;20374;-73
2022/03/17 10:42:45;;;;;;;;;;;9.90;93.10;;;;;;5076646;28;19928;-73
2022/03/17 10:45:13;;;;;;;;;;;10.10;92.70;;;;;;5076870;28;19927;-73
2022/03/17 10:47:42;;;;;;;;;;;10.30;92.50;;;;;;5079972;28;19932;-73
2022/03/17 10:50:12;;;;;;;;;;;10.10;92.40;;;;;;5078807;28;19924;-73
2022/03/17 10:52:46;;;;;;;;;;;10.10;92.70;;;;;;5081909;28;20387;-73
2022/03/17 10:55:13;;;;;;;;;;;9.90;93.20;;;;;;5079411;28;20019;-73
2022/03/17 10:57:40;;;;;;;;;;;9.90;94.50;;;;;;5073093;28;19950;-73
2022/03/17 11:00:10;;;;;;;;;;;10.30;93.00;;;;;;5081960;28;20434;-71
2022/03/17 11:02:39;;;;;;;;;;;10.50;92.10;;;;;;5076608;28;19928;-70
2022/03/17 11:05:10;;;;;;;;;;;10.50;91.60;;;;;;5084603;28;19932;-72
2022/03/17 11:07:38;;;;;;;;;;;10.20;92.30;;;;;;5079890;28;19924;-70
2022/03/17 11:10:07;;;;;;;;;;;10.30;91.20;;;;;;5081056;28;20572;-72
2022/03/17 11:12:34;;;;;;;;;;;10.40;91.30;;;;;;5077461;28;19924;-72
2022/03/17 11:15:02;;;;;;;;;;;10.50;90.10;;;;;;5083733;28;19924;-72
2022/03/17 11:17:31;;;;;;;;;;;10.30;90.00;;;;;;5075379;28;19932;-72
2022/03/17 11:20:03;;;;;;;;;;;10.30;89.80;;;;;;5083928;28;19994;-71
2022/03/17 11:22:32;;;;;;;;;;;10.30;90.10;;;;;;5082479;28;20323;-71
2022/03/17 11:25:14;;;;;;;;;;;10.50;90.00;;;;;;5071700;28;19929;-71
2022/03/17 11:27:44;;;;;;;;;;;10.50;90.20;;;;;;5074612;28;20007;-71
2022/03/17 11:30:13;;;;;;;;;;;10.60;89.20;;;;;;5083986;28;19924;-71
2022/03/17 11:32:48;;;;;;;;;;;10.50;88.60;;;;;;5078870;28;19932;-71
2022/03/17 11:35:18;;;;;;;;;;;10.50;90.10;;;;;;5079230;28;19947;-71
2022/03/17 11:37:45;;;;;;;;;;;10.80;90.20;;;;;;5074657;28;19928;-70
2022/03/17 11:40:13;;;;;;;;;;;10.70;89.00;;;;;;5077912;28;19931;-71
2022/03/17 11:42:42;;;;;;;;;;;10.40;88.70;;;;;;5074204;28;19989;-71
2022/03/17 11:45:23;;;;;;;;;;;10.50;89.80;;;;;;5073630;28;19925;-70
2022/03/17 11:47:51;;;;;;;;;;;10.80;88.50;;;;;;5068620;28;19928;-71
2022/03/17 11:50:31;;;;;;;;;;;10.80;86.50;;;;;;5080228;28;19932;-70
2022/03/17 11:52:59;;;;;;;;;;;10.70;86.70;;;;;;5079908;28;19955;-70
2022/03/17 11:55:32;;;;;;;;;;;10.80;85.50;;;;;;5079709;28;20015;-70
2022/03/17 11:58:17;;;;;;;;;;;10.70;86.10;;;;;;5077104;28;20509;-70
2022/03/17 12:00:45;;;;;;;;;;;10.70;86.30;;;;;;5083105;28;19938;-70
2022/03/17 12:03:12;;;;;;;;;;;11.00;86.50;;;;;;5084659;28;20624;-70
2022/03/17 12:05:42;;;;;;;;;;;11.10;85.30;;;;;;5081585;28;19939;-71
2022/03/17 12:08:09;;;;;;;;;;;10.80;85.20;;;;;;5080640;28;20295;-71
2022/03/17 12:10:53;;;;;;;;;;;10.80;84.60;;;;;;5084240;28;19925;-71
2022/03/17 12:13:24;;;;;;;;;;;10.90;85.10;;;;;;5075995;28;19934;-71
2022/03/17 12:15:55;;;;;;;;;;;10.90;84.40;;;;;;5078203;28;20031;-71
2022/03/17 12:18:22;;;;;;;;;;;10.90;84.50;;;;;;5073217;28;19931;-70
2022/03/17 12:20:52;;;;;;;;;;;10.80;83.20;;;;;;5076920;28;19932;-71
2022/03/17 12:23:37;;;;;;;;;;;11.00;82.00;;;;;;5081154;28;19985;-70
2022/03/17 12:26:04;;;;;;;;;;;11.00;81.70;;;;;;5073430;28;19932;-71
2022/03/17 12:28:31;;;;;;;;;;;11.20;82.80;;;;;;5078333;28;19924;-72
2022/03/17 12:30:58;;;;;;;;;;;11.30;82.80;;;;;;5074647;28;19924;-72
2022/03/17 12:33:26;;;;;;;;;;;11.50;82.30;;;;;;5075704;28;19930;-70
2022/03/17 12:36:04;;;;;;;;;;;11.10;81.50;;;;;;5079379;28;20315;-72
2022/03/17 12:38:32;;;;;;;;;;;10.90;82.10;;;;;;5076717;28;19924;-71
2022/03/17 12:41:00;;;;;;;;;;;10.90;81.30;;;;;;5079418;28;19924;-72
2022/03/17 12:43:27;;;;;;;;;;;10.70;82.40;;;;;;5083874;28;19982;-73
2022/03/17 12:45:56;;;;;;;;;;;11.00;82.20;;;;;;5082950;28;19933;-73
2022/03/17 12:48:25;;;;;;;;;;;11.00;80.80;;;;;;5080638;28;19927;-73
2022/03/17 12:50:51;;;;;;;;;;;10.70;80.80;;;;;;5074044;28;19930;-74
2022/03/17 12:53:19;;;;;;;;;;;10.90;78.10;;;;;;5081675;28;21915;-74
2022/03/17 12:55:46;;;;;;;;;;;11.10;77.40;;;;;;5078434;28;20490;-74
2022/03/17 12:58:16;;;;;;;;;;;11.40;75.60;;;;;;5079500;28;19932;-72
2022/03/17 13:00:43;;;;;;;;;;;11.40;73.00;;;;;;5073747;28;20414;-75
2022/03/17 13:03:16;;;;;;;;;;;11.60;71.20;;;;;;5076305;28;19936;-76
2022/03/17 13:08:36;;;;;;;;;;;10.90;70.10;;;;;;5081677;28;19939;-76
2022/03/17 13:16:33;;;;;;;;;;;10.50;71.00;;;;;;5067596;28;20603;-75
2022/03/17 13:18:59;;;;;;;;;;;10.50;70.80;;;;;;5074786;28;20339;-76
2022/03/17 13:21:26;;;;;;;;;;;10.80;70.20;;;;;;5074568;28;19938;-76
2022/03/17 13:23:54;;;;;;;;;;;11.00;68.00;;;;;;5074223;28;19959;-75
2022/03/17 13:26:21;;;;;;;;;;;11.20;67.90;;;;;;5078460;28;19924;-76
2022/03/17 13:29:00;;;;;;;;;;;11.40;67.60;;;;;;5079050;28;19925;-76
2022/03/17 13:31:33;;;;;;;;;;;11.50;67.80;;;;;;5076445;28;20595;-75
2022/03/17 13:33:59;;;;;;;;;;;11.40;67.60;;;;;;5076432;28;19924;-75
2022/03/17 13:36:41;;;;;;;;;;;11.30;66.70;;;;;;5077872;28;19925;-79
2022/03/17 13:39:11;;;;;;;;;;;11.40;66.40;;;;;;5076703;28;19938;-76
2022/03/17 13:41:40;;;;;;;;;;;10.90;68.90;;;;;;5076003;28;19935;-77
2022/03/17 13:44:08;;;;;;;;;;;10.80;68.50;;;;;;5074067;28;19939;-78
2022/03/17 13:46:38;;;;;;;;;;;10.90;69.20;;;;;;5069999;28;20416;-76
2022/03/17 13:49:14;;;;;;;;;;;11.00;65.70;;;;;;5072484;28;20330;-81
2022/03/17 13:51:41;;;;;;;;;;;11.30;64.70;;;;;;5079310;28;19958;-77
2022/03/17 13:54:08;;;;;;;;;;;11.40;65.40;;;;;;5074978;28;19939;-71
2022/03/17 13:56:37;;;;;;;;;;;11.00;67.70;;;;;;5077470;28;20355;-75
2022/03/17 13:59:03;;;;;;;;;;;11.30;64.90;;;;;;5086127;28;19924;-74
2022/03/17 14:01:30;;;;;;;;;;;11.60;63.70;;;;;;5084884;28;19924;-73
2022/03/17 14:03:58;;;;;;;;;;;11.60;62.10;;;;;;5078139;28;19928;-74
2022/03/17 14:06:30;;;;;;;;;;;11.60;64.10;;;;;;5081031;28;20080;-73
2022/03/17 14:08:57;;;;;;;;;;;11.80;64.10;;;;;;5081581;28;20360;-74
2022/03/17 14:11:25;;;;;;;;;;;11.30;66.40;;;;;;5079920;28;20027;-74
2022/03/17 14:13:53;;;;;;;;;;;11.40;67.50;;;;;;5079862;28;19924;-73
2022/03/17 14:16:21;;;;;;;;;;;11.30;64.60;;;;;;5080607;28;19928;-74
2022/03/17 14:18:49;;;;;;;;;;;11.10;66.60;;;;;;5082319;28;19924;-74
2022/03/17 14:21:17;;;;;;;;;;;11.10;66.90;;;;;;5082279;28;20280;-74
2022/03/17 14:26:32;;;;;;;;;;;11.20;66.20;;;;;;5085155;28;19932;-75
2022/03/17 14:29:00;;;;;;;;;;;11.40;66.30;;;;;;5085371;28;19981;-77
2022/03/17 14:31:27;;;;;;;;;;;11.10;67.00;;;;;;5083117;28;19971;-76
2022/03/17 14:33:54;;;;;;;;;;;10.90;67.10;;;;;;5083573;28;19969;-76
2022/03/17 14:36:20;;;;;;;;;;;10.90;65.10;;;;;;5083782;28;19928;-78
2022/03/17 14:38:50;;;;;;;;;;;11.00;65.40;;;;;;5077472;28;20316;-76
2022/03/17 14:41:17;;;;;;;;;;;11.20;64.60;;;;;;5084284;28;19931;-76
2022/03/17 14:43:44;;;;;;;;;;;11.20;61.50;;;;;;5089801;28;19940;-76
2022/03/17 14:46:13;;;;;;;;;;;11.20;61.60;;;;;;5073835;28;20011;-75
2022/03/17 14:48:40;;;;;;;;;;;11.10;61.20;;;;;;5076877;28;19924;-74
2022/03/17 14:51:06;;;;;;;;;;;11.10;62.10;;;;;;5076500;28;19924;-75
2022/03/17 14:53:34;;;;;;;;;;;11.50;62.20;;;;;;5076447;28;19924;-75
2022/03/17 14:56:04;;;;;;;;;;;11.50;61.20;;;;;;5080992;28;20346;-74